sensor_id;sensor_type;location;lat;lon;timestamp;P1;durP1;ratioP1;P2;durP2;ratioP2
6412;SDS011;3239;48.714;9.472;2022-11-04T00:01:53;5.90;;;4.73;;
6412;SDS011;3239;48.714;9.472;2022-11-04T00:04:19;7.30;;;5.00;;
6412;SDS011;3239;48.714;9.472;2022-11-04T00:06:47;6.40;;;5.17;;
6412;SDS011;3239;48.714;9.472;2022-11-04T00:09:15;6.93;;;5.27;;
6412;SDS011;3239;48.714;9.472;2022-11-04T00:11:47;5.70;;;5.17;;
6412;SDS011;3239;48.714;9.472;2022-11-04T00:14:32;5.80;;;5.00;;
6412;SDS011;3239;48.714;9.472;2022-11-04T00:16:59;6.70;;;5.17;;
6412;SDS011;3239;48.714;9.472;2022-11-04T00:19:50;6.33;;;4.60;;
6412;SDS011;3239;48.714;9.472;2022-11-04T00:22:37;5.90;;;4.37;;
6412;SDS011;3239;48.714;9.472;2022-11-04T00:25:23;4.17;;;3.77;;
6412;SDS011;3239;48.714;9.472;2022-11-04T00:28:09;8.53;;;4.77;;
6412;SDS011;3239;48.714;9.472;2022-11-04T00:31:02;9.60;;;3.93;;
6412;SDS011;3239;48.714;9.472;2022-11-04T00:33:49;4.17;;;3.80;;
6412;SDS011;3239;48.714;9.472;2022-11-04T00:36:17;5.67;;;3.80;;
6412;SDS011;3239;48.714;9.472;2022-11-04T00:38:44;5.00;;;4.20;;
6412;SDS011;3239;48.714;9.472;2022-11-04T00:41:10;4.13;;;3.53;;
6412;SDS011;3239;48.714;9.472;2022-11-04T00:46:22;3.97;;;3.57;;
6412;SDS011;3239;48.714;9.472;2022-11-04T00:48:48;4.20;;;3.80;;
6412;SDS011;3239;48.714;9.472;2022-11-04T00:51:14;3.80;;;3.50;;
6412;SDS011;3239;48.714;9.472;2022-11-04T00:53:40;5.17;;;4.20;;
6412;SDS011;3239;48.714;9.472;2022-11-04T00:56:06;8.73;;;4.20;;
6412;SDS011;3239;48.714;9.472;2022-11-04T00:58:32;3.97;;;3.60;;
6412;SDS011;3239;48.714;9.472;2022-11-04T01:00:58;4.87;;;4.13;;
6412;SDS011;3239;48.714;9.472;2022-11-04T01:03:23;4.77;;;3.80;;
6412;SDS011;3239;48.714;9.472;2022-11-04T01:05:49;4.90;;;4.03;;
6412;SDS011;3239;48.714;9.472;2022-11-04T01:08:15;4.80;;;3.70;;
6412;SDS011;3239;48.714;9.472;2022-11-04T01:10:40;4.03;;;3.50;;
6412;SDS011;3239;48.714;9.472;2022-11-04T01:13:09;4.60;;;3.93;;
6412;SDS011;3239;48.714;9.472;2022-11-04T01:15:36;4.30;;;3.90;;
6412;SDS011;3239;48.714;9.472;2022-11-04T01:18:02;5.00;;;4.37;;
6412;SDS011;3239;48.714;9.472;2022-11-04T01:20:30;4.60;;;4.17;;
6412;SDS011;3239;48.714;9.472;2022-11-04T01:22:56;4.97;;;4.47;;
6412;SDS011;3239;48.714;9.472;2022-11-04T01:25:22;4.60;;;4.00;;
6412;SDS011;3239;48.714;9.472;2022-11-04T01:27:48;4.70;;;4.20;;
6412;SDS011;3239;48.714;9.472;2022-11-04T01:30:14;4.60;;;3.63;;
6412;SDS011;3239;48.714;9.472;2022-11-04T01:32:40;5.77;;;3.60;;
6412;SDS011;3239;48.714;9.472;2022-11-04T01:35:06;4.57;;;3.90;;
6412;SDS011;3239;48.714;9.472;2022-11-04T01:37:32;4.10;;;3.50;;
6412;SDS011;3239;48.714;9.472;2022-11-04T01:39:57;4.90;;;4.23;;
6412;SDS011;3239;48.714;9.472;2022-11-04T01:42:23;3.63;;;3.30;;
6412;SDS011;3239;48.714;9.472;2022-11-04T01:50:06;3.60;;;2.80;;
6412;SDS011;3239;48.714;9.472;2022-11-04T01:55:59;3.77;;;2.57;;
6412;SDS011;3239;48.714;9.472;2022-11-04T01:58:30;6.30;;;3.00;;
6412;SDS011;3239;48.714;9.472;2022-11-04T02:00:58;3.10;;;2.43;;
6412;SDS011;3239;48.714;9.472;2022-11-04T02:03:25;2.50;;;2.30;;
6412;SDS011;3239;48.714;9.472;2022-11-04T02:05:58;3.93;;;2.30;;
6412;SDS011;3239;48.714;9.472;2022-11-04T02:08:24;3.10;;;2.37;;
6412;SDS011;3239;48.714;9.472;2022-11-04T02:10:51;3.00;;;2.57;;
6412;SDS011;3239;48.714;9.472;2022-11-04T02:13:24;2.60;;;2.30;;
6412;SDS011;3239;48.714;9.472;2022-11-04T02:16:13;3.90;;;2.57;;
6412;SDS011;3239;48.714;9.472;2022-11-04T02:22:01;4.40;;;2.53;;
6412;SDS011;3239;48.714;9.472;2022-11-04T02:31:25;2.70;;;2.40;;
6412;SDS011;3239;48.714;9.472;2022-11-04T02:36:25;2.77;;;2.47;;
6412;SDS011;3239;48.714;9.472;2022-11-04T02:42:24;4.00;;;2.10;;
6412;SDS011;3239;48.714;9.472;2022-11-04T02:47:43;2.10;;;1.80;;
6412;SDS011;3239;48.714;9.472;2022-11-04T02:50:26;2.43;;;1.70;;
6412;SDS011;3239;48.714;9.472;2022-11-04T02:53:03;2.03;;;1.30;;
6412;SDS011;3239;48.714;9.472;2022-11-04T02:55:48;2.23;;;1.53;;
6412;SDS011;3239;48.714;9.472;2022-11-04T02:58:22;1.80;;;1.47;;
6412;SDS011;3239;48.714;9.472;2022-11-04T03:00:59;1.90;;;1.40;;
6412;SDS011;3239;48.714;9.472;2022-11-04T03:03:27;1.90;;;1.53;;
6412;SDS011;3239;48.714;9.472;2022-11-04T03:06:03;2.53;;;1.47;;
6412;SDS011;3239;48.714;9.472;2022-11-04T03:08:34;2.90;;;1.20;;
6412;SDS011;3239;48.714;9.472;2022-11-04T03:11:06;5.40;;;1.30;;
6412;SDS011;3239;48.714;9.472;2022-11-04T10:52:39;2.00;;;1.17;;
6412;SDS011;3239;48.714;9.472;2022-11-04T10:55:10;3.00;;;1.30;;
6412;SDS011;3239;48.714;9.472;2022-11-04T10:58:08;1.60;;;0.97;;
6412;SDS011;3239;48.714;9.472;2022-11-04T11:00:43;4.60;;;1.40;;
6412;SDS011;3239;48.714;9.472;2022-11-04T11:03:42;6.10;;;1.33;;
6412;SDS011;3239;48.714;9.472;2022-11-04T11:09:12;2.63;;;1.10;;
6412;SDS011;3239;48.714;9.472;2022-11-04T11:11:47;4.97;;;1.20;;
6412;SDS011;3239;48.714;9.472;2022-11-04T11:16:53;3.70;;;0.97;;
6412;SDS011;3239;48.714;9.472;2022-11-04T11:19:20;3.30;;;1.10;;
6412;SDS011;3239;48.714;9.472;2022-11-04T11:21:50;3.23;;;1.20;;
6412;SDS011;3239;48.714;9.472;2022-11-04T11:26:46;4.17;;;1.30;;
6412;SDS011;3239;48.714;9.472;2022-11-04T11:29:20;2.90;;;1.00;;
6412;SDS011;3239;48.714;9.472;2022-11-04T11:31:52;3.20;;;1.13;;
6412;SDS011;3239;48.714;9.472;2022-11-04T11:36:56;3.00;;;1.27;;
6412;SDS011;3239;48.714;9.472;2022-11-04T11:39:24;1.70;;;0.97;;
6412;SDS011;3239;48.714;9.472;2022-11-04T11:41:55;3.43;;;1.33;;
6412;SDS011;3239;48.714;9.472;2022-11-04T11:44:35;5.20;;;1.33;;
6412;SDS011;3239;48.714;9.472;2022-11-04T11:47:21;4.90;;;1.13;;
6412;SDS011;3239;48.714;9.472;2022-11-04T11:52:50;5.90;;;1.33;;
6412;SDS011;3239;48.714;9.472;2022-11-04T12:01:03;3.20;;;1.17;;
6412;SDS011;3239;48.714;9.472;2022-11-04T12:03:46;2.70;;;1.00;;
6412;SDS011;3239;48.714;9.472;2022-11-04T12:06:27;3.33;;;1.30;;
6412;SDS011;3239;48.714;9.472;2022-11-04T12:09:02;5.30;;;1.30;;
6412;SDS011;3239;48.714;9.472;2022-11-04T12:18:59;6.03;;;0.97;;
6412;SDS011;3239;48.714;9.472;2022-11-04T12:21:38;2.60;;;0.97;;
6412;SDS011;3239;48.714;9.472;2022-11-04T12:30:13;8.10;;;1.10;;
6412;SDS011;3239;48.714;9.472;2022-11-04T12:42:27;3.30;;;1.23;;
6412;SDS011;3239;48.714;9.472;2022-11-04T12:48:08;5.23;;;1.00;;
6412;SDS011;3239;48.714;9.472;2022-11-04T12:56:57;3.87;;;1.37;;
6412;SDS011;3239;48.714;9.472;2022-11-04T13:00:03;7.70;;;0.80;;
6412;SDS011;3239;48.714;9.472;2022-11-04T13:08:19;4.30;;;0.80;;
6412;SDS011;3239;48.714;9.472;2022-11-04T13:13:48;6.63;;;0.87;;
6412;SDS011;3239;48.714;9.472;2022-11-04T13:16:43;3.60;;;0.90;;
6412;SDS011;3239;48.714;9.472;2022-11-04T13:19:23;6.30;;;0.90;;
6412;SDS011;3239;48.714;9.472;2022-11-04T13:22:26;4.70;;;0.90;;
6412;SDS011;3239;48.714;9.472;2022-11-04T13:25:02;4.10;;;1.00;;
6412;SDS011;3239;48.714;9.472;2022-11-04T13:27:37;3.30;;;1.33;;
6412;SDS011;3239;48.714;9.472;2022-11-04T13:36:21;2.97;;;1.00;;
6412;SDS011;3239;48.714;9.472;2022-11-04T13:38:51;2.30;;;0.93;;
6412;SDS011;3239;48.714;9.472;2022-11-04T14:14:38;3.77;;;1.10;;
6412;SDS011;3239;48.714;9.472;2022-11-04T14:20:00;8.63;;;1.33;;
6412;SDS011;3239;48.714;9.472;2022-11-04T14:22:56;5.13;;;1.70;;
6412;SDS011;3239;48.714;9.472;2022-11-04T14:27:53;3.50;;;1.20;;
6412;SDS011;3239;48.714;9.472;2022-11-04T14:30:44;3.63;;;0.97;;
6412;SDS011;3239;48.714;9.472;2022-11-04T14:36:12;4.63;;;1.60;;
6412;SDS011;3239;48.714;9.472;2022-11-04T14:41:48;3.53;;;1.13;;
6412;SDS011;3239;48.714;9.472;2022-11-04T14:57:34;6.23;;;1.10;;
6412;SDS011;3239;48.714;9.472;2022-11-04T15:05:51;3.03;;;1.13;;
6412;SDS011;3239;48.714;9.472;2022-11-04T15:18:56;4.73;;;1.90;;
6412;SDS011;3239;48.714;9.472;2022-11-04T15:21:24;4.03;;;1.40;;
6412;SDS011;3239;48.714;9.472;2022-11-04T15:23:51;4.90;;;2.13;;
6412;SDS011;3239;48.714;9.472;2022-11-04T15:26:25;4.23;;;2.00;;
